Time;durP1;ratioP1;P1;durP2;ratioP2;P2;SDS_P1;SDS_P2;PMS_P1;PMS_P2;Temp;Humidity;BMP_temperature;BMP_pressure;BME280_temperature;BME280_humidity;BME280_pressure;Samples;Min_cycle;Max_cycle;Signal;HPM_P1;HPM_P2
2022/02/22 00:01:50;;;;;;;49.80;5.53;;;;;;;5.22;77.98;101856.41;5047168;28;20029;-60
2022/02/22 00:04:15;;;;;;;45.25;6.00;;;;;;;5.20;78.18;101852.06;5047284;28;20057;-60
2022/02/22 00:06:40;;;;;;;59.97;6.13;;;;;;;5.15;78.00;101860.72;5047409;28;20070;-60
2022/02/22 00:09:05;;;;;;;33.25;5.30;;;;;;;5.13;78.42;101851.13;5047048;28;20037;-60
2022/02/22 00:11:31;;;;;;;43.90;5.07;;;;;;;5.10;78.53;101858.94;5046676;28;20048;-59
2022/02/22 00:13:56;;;;;;;36.38;5.20;;;;;;;5.08;78.73;101868.53;5046226;28;20025;-58
2022/02/22 00:16:22;;;;;;;46.78;5.43;;;;;;;5.04;78.84;101876.34;5048021;28;20509;-61
2022/02/22 00:18:47;;;;;;;47.85;6.32;;;;;;;5.04;79.21;101901.59;5046224;28;20027;-58
2022/02/22 00:21:12;;;;;;;36.72;4.55;;;;;;;5.06;79.22;101889.41;5047952;28;20391;-60
2022/02/22 00:23:39;;;;;;;53.47;6.32;;;;;;;5.12;79.01;101881.59;5046907;28;20136;-59
2022/02/22 00:26:05;;;;;;;43.72;5.97;;;;;;;5.10;78.99;101879.84;5047106;28;20039;-58
2022/02/22 00:28:30;;;;;;;47.35;6.55;;;;;;;5.08;79.29;101894.66;5047706;28;20120;-59
2022/02/22 00:30:56;;;;;;;55.00;5.47;;;;;;;5.10;79.50;101899.03;5047490;28;20420;-58
2022/02/22 00:33:21;;;;;;;31.17;4.45;;;;;;;5.13;79.12;101903.38;5046676;28;20439;-58
2022/02/22 00:35:46;;;;;;;36.88;5.65;;;;;;;5.09;79.20;101906.84;5047464;28;20518;-60
2022/02/22 00:38:12;;;;;;;48.95;4.82;;;;;;;5.08;79.20;101912.94;5047821;28;20200;-59
2022/02/22 00:40:37;;;;;;;40.30;4.95;;;;;;;5.06;79.31;101912.94;5047217;28;20025;-60
2022/02/22 00:43:02;;;;;;;44.83;5.15;;;;;;;5.04;79.00;101910.31;5047217;28;20122;-59
2022/02/22 00:45:28;;;;;;;37.70;4.68;;;;;;;5.02;79.10;101917.25;5048066;28;20063;-59
2022/02/22 00:47:53;;;;;;;48.28;6.38;;;;;;;4.98;79.44;101923.31;5045157;28;20112;-57
2022/02/22 00:50:19;;;;;;;41.85;5.68;;;;;;;4.97;79.77;101924.16;5067108;28;20471;-59
2022/02/22 00:52:44;;;;;;;43.95;4.65;;;;;;;4.99;79.69;101921.56;5065970;28;20029;-61
2022/02/22 00:55:10;;;;;;;39.17;4.78;;;;;;;5.01;79.67;101920.75;5067000;28;20028;-60
2022/02/22 00:57:37;;;;;;;39.30;5.43;;;;;;;4.99;79.76;101905.91;5067050;28;20065;-59
2022/02/22 01:00:04;;;;;;;50.08;5.35;;;;;;;4.97;79.85;101916.34;5051828;28;20083;-57
2022/02/22 01:02:29;;;;;;;45.70;4.60;;;;;;;4.96;79.91;101922.44;5048785;28;20072;-60
2022/02/22 01:04:55;;;;;;;39.78;5.32;;;;;;;4.96;79.93;101932.03;5049488;28;20104;-60
2022/02/22 01:07:21;;;;;;;44.67;7.88;;;;;;;4.96;79.86;101922.44;5051880;28;20112;-60
2022/02/22 01:09:47;;;;;;;39.95;6.05;;;;;;;4.96;79.73;101929.41;5050576;28;20041;-61
2022/02/22 01:12:13;;;;;;;33.75;5.13;;;;;;;4.91;79.95;101924.16;5050635;28;20052;-63
2022/02/22 01:14:39;;;;;;;42.35;6.80;;;;;;;4.88;80.13;101932.81;5050127;28;20092;-59
2022/02/22 01:17:05;;;;;;;30.00;4.35;;;;;;;4.86;80.01;101929.34;5050972;28;20519;-60
2022/02/22 01:19:30;;;;;;;39.88;5.68;;;;;;;4.85;80.15;101924.94;5050822;28;20040;-60
2022/02/22 01:21:55;;;;;;;45.05;6.00;;;;;;;4.84;80.18;101938.03;5047956;28;20379;-58
2022/02/22 01:24:21;;;;;;;30.15;6.18;;;;;;;4.75;80.24;101939.69;5050024;28;20023;-59
2022/02/22 01:26:46;;;;;;;40.28;4.90;;;;;;;4.75;80.39;101951.84;5046081;28;20398;-60
2022/02/22 01:29:11;;;;;;;42.38;5.45;;;;;;;4.77;79.44;101943.19;5050886;28;20029;-59
2022/02/22 01:31:37;;;;;;;54.58;6.18;;;;;;;4.76;80.16;101948.41;5050625;28;20033;-59
2022/02/22 01:34:02;;;;;;;34.85;4.35;;;;;;;4.75;80.40;101949.25;5050139;28;20017;-59
2022/02/22 01:36:27;;;;;;;34.05;4.90;;;;;;;4.73;80.18;101951.84;5048916;28;20556;-59
2022/02/22 01:38:53;;;;;;;40.05;6.18;;;;;;;4.68;80.29;101940.50;5050149;28;20032;-60
2022/02/22 01:41:23;;;;;;;40.92;5.68;;;;;;;4.67;80.55;101941.38;5050191;28;20025;-58
2022/02/22 01:43:49;;;;;;;56.10;6.28;;;;;;;4.60;80.82;101931.75;5050787;28;20448;-59
2022/02/22 01:46:14;;;;;;;38.03;4.53;;;;;;;4.58;80.92;101936.94;5050412;28;20104;-60
2022/02/22 01:48:40;;;;;;;41.70;4.95;;;;;;;4.51;81.11;101945.56;5050434;28;20036;-59
2022/02/22 01:51:06;;;;;;;44.72;5.65;;;;;;;4.48;81.28;101935.97;5062119;28;20024;-58
2022/02/22 01:53:32;;;;;;;35.40;5.15;;;;;;;4.50;81.27;101955.16;5059029;28;20479;-59
2022/02/22 01:55:59;;;;;;;27.02;4.18;;;;;;;4.53;81.14;101955.19;5048274;28;20078;-59
2022/02/22 01:58:24;;;;;;;36.63;5.40;;;;;;;4.49;81.13;101953.38;5049117;28;20062;-59
2022/02/22 02:00:49;;;;;;;42.80;5.60;;;;;;;4.58;81.23;101959.56;5049821;28;20021;-59
2022/02/22 02:03:16;;;;;;;43.30;5.40;;;;;;;4.62;81.02;101954.38;5050346;28;20021;-61
2022/02/22 02:05:43;;;;;;;24.77;3.88;;;;;;;4.65;80.90;101961.34;5050821;28;20025;-58
2022/02/22 02:08:08;;;;;;;36.45;5.40;;;;;;;4.71;80.55;101960.53;5049113;28;20025;-59
2022/02/22 02:10:33;;;;;;;35.60;5.13;;;;;;;4.68;80.54;101964.00;5048120;28;20641;-61
2022/02/22 02:12:59;;;;;;;51.88;5.05;;;;;;;4.72;80.42;101968.38;5046609;28;20040;-59
2022/02/22 02:15:24;;;;;;;42.83;6.20;;;;;;;4.73;80.37;101962.28;5049562;28;20082;-60
2022/02/22 02:17:49;;;;;;;35.97;4.95;;;;;;;4.78;80.29;101964.94;5048566;28;20024;-60
2022/02/22 02:20:15;;;;;;;34.50;4.78;;;;;;;4.76;80.12;101959.72;5049422;28;20021;-60
2022/02/22 02:22:43;;;;;;;38.53;5.50;;;;;;;4.76;80.12;101951.88;5047260;28;20361;-58
2022/02/22 02:25:10;;;;;;;33.80;4.80;;;;;;;4.79;79.79;101953.66;5048948;28;20017;-59
2022/02/22 02:27:36;;;;;;;26.05;4.25;;;;;;;4.80;79.99;101943.22;5048167;28;20207;-59
2022/02/22 02:30:03;;;;;;;38.13;5.15;;;;;;;4.80;79.76;101945.84;5047388;28;20132;-59
2022/02/22 02:32:29;;;;;;;43.75;5.82;;;;;;;4.82;79.67;101944.97;5066132;28;20107;-60
2022/02/22 02:34:55;;;;;;;33.10;3.83;;;;;;;4.77;79.89;101953.66;5055379;28;20558;-60
2022/02/22 02:37:20;;;;;;;25.40;5.00;;;;;;;4.76;80.08;101951.03;5048672;28;20536;-61
2022/02/22 02:39:45;;;;;;;33.67;4.57;;;;;;;4.72;80.54;101951.84;5049325;28;20112;-60
2022/02/22 02:42:11;;;;;;;36.15;4.35;;;;;;;4.74;80.07;101950.13;5046927;28;20107;-59
2022/02/22 02:44:36;;;;;;;35.80;4.45;;;;;;;4.72;80.30;101950.09;5048978;28;20074;-60
2022/02/22 02:47:04;;;;;;;30.92;5.00;;;;;;;4.78;80.41;101950.16;5048436;28;20047;-60
2022/02/22 02:49:30;;;;;;;32.20;4.65;;;;;;;4.77;80.23;101943.19;5047508;28;20037;-60
2022/02/22 02:51:55;;;;;;;32.38;4.60;;;;;;;4.72;80.31;101950.09;5047463;28;20112;-59
2022/02/22 02:54:21;;;;;;;36.42;5.72;;;;;;;4.72;80.34;101955.31;5048711;28;20052;-60
2022/02/22 02:56:46;;;;;;;44.80;5.00;;;;;;;4.72;80.48;101937.06;5048177;28;20388;-59
2022/02/22 02:59:12;;;;;;;32.08;4.18;;;;;;;4.71;80.50;101945.75;5049026;28;20033;-59
2022/02/22 03:01:40;;;;;;;44.60;5.05;;;;;;;4.65;80.63;101937.88;5050460;28;20155;-59
2022/02/22 03:04:06;;;;;;;32.17;3.90;;;;;;;4.65;80.46;101940.47;5052010;28;20029;-61
2022/02/22 03:06:31;;;;;;;32.15;4.55;;;;;;;4.61;80.97;101942.16;5049092;28;20490;-60
2022/02/22 03:08:57;;;;;;;34.80;4.28;;;;;;;4.59;81.07;101946.53;5047365;28;20069;-61
2022/02/22 03:11:23;;;;;;;31.15;3.92;;;;;;;4.60;80.68;101955.25;5047188;28;20095;-62
2022/02/22 03:13:49;;;;;;;32.80;4.43;;;;;;;4.58;81.15;101947.38;5046329;28;20587;-59
2022/02/22 03:16:14;;;;;;;44.28;4.10;;;;;;;4.59;81.06;101959.56;5047969;28;20127;-63
2022/02/22 03:18:42;;;;;;;28.55;4.97;;;;;;;4.58;81.31;101951.72;5048875;28;20021;-61
2022/02/22 03:21:07;;;;;;;34.78;4.95;;;;;;;4.58;81.14;101952.63;5046916;28;20029;-61
2022/02/22 03:23:33;;;;;;;32.75;4.78;;;;;;;4.63;81.06;101955.22;5048352;28;20391;-60
2022/02/22 03:25:58;;;;;;;31.08;4.10;;;;;;;4.63;80.92;101955.22;5046067;28;20490;-58
2022/02/22 03:28:23;;;;;;;20.60;3.33;;;;;;;4.65;80.86;101950.91;5047083;28;20028;-59
2022/02/22 03:30:49;;;;;;;37.33;6.68;;;;;;;4.67;80.84;101957.03;5048338;28;20049;-60
2022/02/22 03:33:15;;;;;;;28.80;3.42;;;;;;;4.68;80.74;101950.94;5048183;28;20021;-61
2022/02/22 03:35:41;;;;;;;23.98;3.90;;;;;;;4.70;80.47;101951.84;5048179;28;20025;-60
2022/02/22 03:38:07;;;;;;;46.47;4.45;;;;;;;4.70;80.37;101936.19;5047968;28;20036;-58
2022/02/22 03:40:32;;;;;;;43.25;6.10;;;;;;;4.67;80.76;101936.16;5047632;28;20029;-57
2022/02/22 03:42:58;;;;;;;26.50;3.80;;;;;;;4.64;80.51;101938.72;5047484;28;20111;-60
2022/02/22 03:45:24;;;;;;;26.98;3.08;;;;;;;4.63;80.91;101942.19;5047581;28;20032;-60
2022/02/22 03:47:49;;;;;;;31.90;3.88;;;;;;;4.60;81.23;101944.78;5047783;28;20533;-61
2022/02/22 03:50:15;;;;;;;27.83;3.05;;;;;;;4.58;81.75;101942.16;5046593;28;20033;-60
2022/02/22 03:52:41;;;;;;;31.08;3.30;;;;;;;4.62;81.59;101940.44;5027318;28;20037;-60
2022/02/22 03:55:07;;;;;;;27.65;3.95;;;;;;;4.63;81.50;101945.69;5036000;28;20111;-60
2022/02/22 03:57:34;;;;;;;30.63;3.95;;;;;;;4.67;81.46;101947.44;5046770;28;20387;-59
2022/02/22 04:00:00;;;;;;;28.63;4.30;;;;;;;4.70;81.03;101944.00;5046898;28;20029;-59
2022/02/22 04:02:26;;;;;;;27.02;3.25;;;;;;;4.71;81.08;101950.09;5047437;28;20029;-61
2022/02/22 04:04:51;;;;;;;23.02;3.72;;;;;;;4.67;81.46;101952.66;5045484;28;20040;-60
2022/02/22 04:07:16;;;;;;;30.50;3.92;;;;;;;4.61;81.65;101959.59;5047479;28;20032;-58
2022/02/22 04:09:42;;;;;;;36.15;4.10;;;;;;;4.58;81.99;101970.00;5047212;28;20021;-59
2022/02/22 04:12:07;;;;;;;32.65;4.22;;;;;;;4.52;82.29;101966.44;5045482;28;20059;-59
2022/02/22 04:14:33;;;;;;;21.20;3.78;;;;;;;4.47;82.15;101962.94;5046792;28;20472;-59
2022/02/22 04:16:58;;;;;;;33.60;3.97;;;;;;;4.46;82.59;101963.81;5047123;28;20040;-59
2022/02/22 04:19:23;;;;;;;28.33;4.38;;;;;;;4.44;82.56;101965.53;5047258;28;20060;-59
2022/02/22 04:21:49;;;;;;;21.63;3.50;;;;;;;4.33;82.89;101960.19;5046625;28;20115;-59
2022/02/22 04:24:15;;;;;;;36.85;3.45;;;;;;;4.29;82.97;101963.63;5047078;28;20051;-61
2022/02/22 04:26:40;;;;;;;28.63;3.15;;;;;;;4.26;83.05;101960.97;5046136;28;20031;-60
2022/02/22 04:29:06;;;;;;;33.25;4.25;;;;;;;4.27;83.36;101968.81;5046267;28;20422;-60
2022/02/22 04:31:38;;;;;;;43.85;4.80;;;;;;;4.27;83.63;101962.72;5046744;28;20036;-60
2022/02/22 04:34:03;;;;;;;29.70;3.70;;;;;;;4.20;83.71;101971.34;5046263;28;20463;-60
2022/02/22 04:36:29;;;;;;;38.17;5.05;;;;;;;4.20;83.89;101971.34;5047080;28;20078;-60
2022/02/22 04:38:54;;;;;;;36.13;3.72;;;;;;;4.17;84.31;101961.75;5046614;28;20455;-59
2022/02/22 04:41:19;;;;;;;25.77;3.47;;;;;;;4.22;84.02;101954.88;5046766;28;20089;-61
2022/02/22 04:43:45;;;;;;;34.83;3.53;;;;;;;4.22;83.96;101954.88;5047096;28;20108;-62
2022/02/22 04:46:10;;;;;;;35.25;3.97;;;;;;;4.21;84.10;101952.25;5046154;28;20066;-61
2022/02/22 04:48:35;;;;;;;38.15;3.67;;;;;;;4.20;84.13;101960.91;5046803;28;20075;-61
2022/02/22 04:51:00;;;;;;;42.53;4.70;;;;;;;4.21;84.39;101965.28;5045593;28;20075;-61
2022/02/22 04:53:26;;;;;;;32.97;4.13;;;;;;;4.23;84.23;101961.84;5046316;28;20179;-60
2022/02/22 04:55:51;;;;;;;25.13;4.07;;;;;;;4.23;84.25;101963.56;5046238;28;20071;-61
2022/02/22 04:58:16;;;;;;;37.10;4.40;;;;;;;4.21;84.22;101960.94;5046756;28;20061;-60
2022/02/22 05:00:42;;;;;;;39.80;4.50;;;;;;;4.21;84.41;101960.94;5043549;28;20041;-59
2022/02/22 05:03:07;;;;;;;29.20;3.08;;;;;;;4.20;84.27;101967.00;5047011;28;20021;-58
2022/02/22 05:05:32;;;;;;;38.90;4.10;;;;;;;4.20;84.53;101971.34;5047559;28;20017;-60
2022/02/22 05:07:58;;;;;;;29.85;4.05;;;;;;;4.16;84.35;101963.47;5045697;28;20117;-64
2022/02/22 05:10:23;;;;;;;34.25;3.85;;;;;;;4.22;84.81;101964.41;5045930;28;20033;-62
2022/02/22 05:12:49;;;;;;;32.65;4.22;;;;;;;4.24;84.69;101962.72;5047470;28;20047;-61
2022/02/22 05:15:14;;;;;;;25.38;4.68;;;;;;;4.29;85.19;101951.47;5047331;28;20029;-62
2022/02/22 05:17:40;;;;;;;30.77;3.60;;;;;;;4.39;84.83;101941.97;5047647;28;20052;-58
2022/02/22 05:20:06;;;;;;;42.40;3.85;;;;;;;4.43;84.86;101943.75;5047371;28;20423;-61
2022/02/22 05:22:45;;;;;;;41.75;4.43;;;;;;;4.54;84.95;101954.31;5047433;28;20025;-60
2022/02/22 05:25:13;;;;;;;27.38;3.88;;;;;;;4.64;84.72;101944.81;5041888;28;20009;-60
2022/02/22 05:27:38;;;;;;;28.85;3.63;;;;;;;4.72;84.57;101938.81;5046816;28;20031;-60
2022/02/22 05:30:05;;;;;;;31.00;4.25;;;;;;;4.78;83.99;101944.94;5046496;28;20037;-58
2022/02/22 05:32:31;;;;;;;25.80;3.28;;;;;;;4.75;83.84;101924.03;5047017;28;20028;-61
2022/02/22 05:34:56;;;;;;;29.17;2.90;;;;;;;4.78;83.89;101925.78;5047004;28;20056;-59
2022/02/22 05:37:22;;;;;;;27.42;3.08;;;;;;;4.80;84.56;101929.28;5046958;28;20025;-60
2022/02/22 05:39:48;;;;;;;27.48;5.70;;;;;;;4.90;84.52;101927.59;5046072;28;20025;-60
2022/02/22 05:42:13;;;;;;;28.05;3.78;;;;;;;4.98;84.30;101925.94;5047222;28;20021;-59
2022/02/22 05:44:38;;;;;;;23.00;3.30;;;;;;;5.06;83.79;101913.78;5046529;28;20102;-60
2022/02/22 05:47:04;;;;;;;23.98;2.97;;;;;;;5.01;83.59;101912.00;5047274;28;20029;-61
2022/02/22 05:49:29;;;;;;;28.08;3.35;;;;;;;4.96;83.65;101918.97;5050402;28;20032;-61
2022/02/22 05:51:55;;;;;;;16.73;2.45;;;;;;;4.91;84.15;101930.22;5050189;28;20032;-61
2022/02/22 05:54:20;;;;;;;27.75;3.53;;;;;;;4.83;84.36;101920.59;5055680;28;20035;-61
2022/02/22 05:56:46;;;;;;;22.98;3.35;;;;;;;4.73;84.52;101922.25;5049767;28;20032;-59
2022/02/22 05:59:12;;;;;;;29.88;4.32;;;;;;;4.64;84.71;101920.47;5049924;28;20043;-63
2022/02/22 06:01:38;;;;;;;34.05;3.70;;;;;;;4.61;84.87;101915.22;5050205;28;20065;-59
2022/02/22 06:04:04;;;;;;;32.45;3.65;;;;;;;4.55;85.16;101906.44;5049983;28;20027;-60
2022/02/22 06:06:30;;;;;;;22.75;3.75;;;;;;;4.49;85.40;101906.38;5049134;28;20433;-62
2022/02/22 06:08:55;;;;;;;22.90;3.80;;;;;;;4.45;85.34;101912.44;5047777;28;20055;-59
2022/02/22 06:11:20;;;;;;;26.48;3.70;;;;;;;4.41;85.77;101908.97;5048452;28;20049;-58
2022/02/22 06:13:46;;;;;;;27.50;3.83;;;;;;;4.36;85.77;101904.56;5048082;28;20020;-59
2022/02/22 06:16:11;;;;;;;38.92;4.53;;;;;;;4.32;86.02;101905.38;5048754;28;20478;-59
2022/02/22 06:18:36;;;;;;;21.20;2.92;;;;;;;4.31;86.39;101896.69;5049160;28;20064;-60
2022/02/22 06:21:02;;;;;;;28.25;4.15;;;;;;;4.26;86.23;101894.03;5049802;28;20467;-60
2022/02/22 06:23:27;;;;;;;26.83;4.10;;;;;;;4.29;86.91;101906.22;5049873;28;20021;-59
2022/02/22 06:25:52;;;;;;;33.42;5.20;;;;;;;4.29;87.04;101898.38;5048971;28;20383;-61
2022/02/22 06:28:19;;;;;;;29.17;3.88;;;;;;;4.35;87.29;101897.56;5050144;28;20021;-61
2022/02/22 06:30:44;;;;;;;34.78;5.22;;;;;;;4.38;87.49;101890.66;5049836;28;20028;-62
2022/02/22 06:33:09;;;;;;;27.25;5.32;;;;;;;4.41;87.72;101893.28;5050323;28;20029;-61
2022/02/22 06:35:35;;;;;;;30.50;3.72;;;;;;;4.46;87.62;101890.72;5049672;28;20134;-60
2022/02/22 06:38:00;;;;;;;46.42;6.15;;;;;;;4.53;87.78;101891.63;5047769;28;20354;-61
2022/02/22 06:40:27;;;;;;;41.92;5.18;;;;;;;4.61;87.65;101889.09;5049143;28;20025;-61
2022/02/22 06:42:52;;;;;;;29.13;4.28;;;;;;;4.67;87.68;101878.72;5039014;28;21018;-61
2022/02/22 06:45:18;;;;;;;38.05;4.70;;;;;;;4.74;87.36;101888.34;5030310;28;20473;-61
2022/02/22 06:47:43;;;;;;;32.15;4.60;;;;;;;4.79;87.08;101884.00;5030419;28;20017;-60
2022/02/22 06:50:11;;;;;;;35.53;4.45;;;;;;;4.89;86.71;101884.97;5029990;28;20475;-61
2022/02/22 06:52:39;;;;;;;36.00;5.28;;;;;;;4.93;86.69;101886.72;5029898;28;20068;-60
2022/02/22 06:55:05;;;;;;;30.65;4.25;;;;;;;4.96;86.33;101882.41;5028448;28;20105;-61
2022/02/22 06:57:31;;;;;;;40.88;5.22;;;;;;;5.01;86.42;101889.38;5029177;28;20064;-60
2022/02/22 06:59:56;;;;;;;35.65;4.57;;;;;;;5.09;86.35;101880.72;5027617;28;20053;-60
2022/02/22 07:02:22;;;;;;;21.15;4.43;;;;;;;5.20;85.76;101871.19;5031769;28;20017;-61
2022/02/22 07:04:47;;;;;;;39.28;4.65;;;;;;;5.26;85.60;101878.19;5036576;28;20029;-61
2022/02/22 07:07:12;;;;;;;30.30;4.15;;;;;;;5.31;84.89;101879.97;5045941;28;20075;-61
2022/02/22 07:09:38;;;;;;;32.05;3.60;;;;;;;5.42;84.58;101874.78;5044034;28;20115;-60
2022/02/22 07:12:03;;;;;;;27.83;4.72;;;;;;;5.46;84.02;101880.91;5045789;28;20650;-62
2022/02/22 07:14:29;;;;;;;27.02;3.97;;;;;;;5.50;84.01;101866.97;5046510;28;20029;-56
2022/02/22 07:16:57;;;;;;;22.45;3.88;;;;;;;5.59;83.65;101867.88;5038870;28;20071;-57
2022/02/22 07:19:23;;;;;;;31.00;4.33;;;;;;;5.62;83.65;101854.81;5037396;28;20029;-57
2022/02/22 07:21:48;;;;;;;27.63;3.67;;;;;;;5.62;83.37;101853.06;5039255;28;20126;-58
2022/02/22 07:24:13;;;;;;;27.75;4.18;;;;;;;5.68;83.14;101850.47;5037373;28;20440;-60
2022/02/22 07:26:39;;;;;;;36.50;5.05;;;;;;;5.75;83.19;101840.91;5037234;28;20423;-57
2022/02/22 07:29:04;;;;;;;23.13;4.28;;;;;;;5.79;82.72;101836.56;5037907;28;20121;-57
2022/02/22 07:31:30;;;;;;;28.67;4.35;;;;;;;5.80;82.93;101836.56;5038539;28;20060;-58
2022/02/22 07:33:55;;;;;;;30.10;4.30;;;;;;;5.88;82.50;101831.34;5036184;28;20032;-58
2022/02/22 07:36:21;;;;;;;30.48;4.32;;;;;;;5.93;82.38;101828.75;5037997;28;20412;-58
2022/02/22 07:38:46;;;;;;;27.40;3.88;;;;;;;5.99;82.13;101833.97;5038423;28;20036;-59
2022/02/22 07:41:11;;;;;;;28.08;3.95;;;;;;;6.00;81.98;101822.66;5030565;28;20776;-63
2022/02/22 07:43:37;;;;;;;24.55;5.07;;;;;;;6.04;81.47;101820.91;5026860;28;20476;-62
2022/02/22 07:46:02;;;;;;;30.58;3.75;;;;;;;6.15;81.60;101810.47;5028114;28;20025;-54
2022/02/22 07:48:27;;;;;;;34.13;5.13;;;;;;;6.21;80.82;101818.31;5028518;28;20092;-57
2022/02/22 07:50:53;;;;;;;27.08;4.53;;;;;;;6.27;80.42;101820.94;5036797;28;20017;-59
2022/02/22 07:53:18;;;;;;;36.70;4.68;;;;;;;6.30;80.22;101823.53;5032934;28;20089;-61
2022/02/22 07:55:43;;;;;;;28.52;4.68;;;;;;;6.37;80.13;101818.31;5035027;28;20028;-61
2022/02/22 07:58:11;;;;;;;37.08;5.35;;;;;;;6.43;80.06;101826.16;5038076;28;20037;-61
2022/02/22 08:00:36;;;;;;;25.30;3.78;;;;;;;6.40;80.00;101818.31;5036020;28;20456;-61
2022/02/22 08:03:02;;;;;;;33.70;5.55;;;;;;;6.48;79.89;101813.06;5028294;28;20033;-60
2022/02/22 08:05:29;;;;;;;31.90;6.57;;;;;;;6.55;79.87;101810.47;5027621;28;20079;-60
2022/02/22 08:07:54;;;;;;;40.13;5.30;;;;;;;6.57;79.77;101810.44;5027589;28;20427;-61
2022/02/22 08:10:20;;;;;;;32.03;4.68;;;;;;;6.72;79.11;101816.53;5027157;28;20021;-61
2022/02/22 08:12:46;;;;;;;37.08;5.00;;;;;;;6.69;79.24;101809.56;5027117;28;20064;-61
2022/02/22 08:15:11;;;;;;;32.60;4.45;;;;;;;6.73;79.62;101799.94;5028289;28;20055;-60
2022/02/22 08:17:40;;;;;;;28.00;5.20;;;;;;;6.80;79.35;101793.78;5035049;28;20075;-59
2022/02/22 08:20:06;;;;;;;29.80;5.05;;;;;;;6.80;79.65;101791.19;5047146;28;20112;-60
2022/02/22 08:22:32;;;;;;;34.72;5.88;;;;;;;6.83;79.25;101791.16;5046024;28;20548;-60
2022/02/22 08:24:57;;;;;;;35.70;5.30;;;;;;;6.87;79.53;101773.72;5046406;28;20037;-62
2022/02/22 08:27:22;;;;;;;27.23;5.03;;;;;;;7.01;79.21;101777.13;5047747;28;20083;-61
2022/02/22 08:29:48;;;;;;;34.45;5.78;;;;;;;7.10;78.92;101771.00;5038242;28;20036;-60
2022/02/22 08:32:13;;;;;;;31.10;5.38;;;;;;;7.07;78.69;101771.00;5031717;28;20128;-61
2022/02/22 08:34:38;;;;;;;37.00;4.88;;;;;;;7.19;78.59;101764.81;5034482;28;20040;-61
2022/02/22 08:37:04;;;;;;;43.28;5.22;;;;;;;7.20;78.32;101753.50;5037059;28;20029;-61
2022/02/22 08:39:29;;;;;;;38.83;5.38;;;;;;;7.30;77.88;101749.06;5036149;28;20086;-61
2022/02/22 08:41:55;;;;;;;30.63;5.35;;;;;;;7.39;77.57;101745.50;5035782;28;20429;-62
2022/02/22 08:44:20;;;;;;;29.95;5.20;;;;;;;7.35;77.48;101735.91;5035213;28;20026;-60
2022/02/22 08:46:45;;;;;;;34.65;5.85;;;;;;;7.44;77.23;101738.50;5037262;28;20591;-60
2022/02/22 08:49:11;;;;;;;30.33;5.13;;;;;;;7.49;76.88;101717.50;5036919;28;20430;-62
2022/02/22 08:51:36;;;;;;;25.45;5.07;;;;;;;7.56;76.51;101729.69;5041231;28;20096;-61
2022/02/22 08:54:04;;;;;;;34.35;5.47;;;;;;;7.51;75.72;101728.81;5047180;28;20044;-57
2022/02/22 08:56:30;;;;;;;29.90;5.43;;;;;;;7.57;75.63;101734.03;5046208;28;20386;-56
2022/02/22 08:58:55;;;;;;;24.58;4.50;;;;;;;7.69;75.01;101725.19;5046988;28;20100;-60
2022/02/22 09:01:21;;;;;;;26.02;5.10;;;;;;;7.68;74.80;101712.97;5038846;28;20020;-60
2022/02/22 09:03:46;;;;;;;18.13;4.10;;;;;;;7.57;75.08;101695.56;5035475;28;20505;-61
2022/02/22 09:06:12;;;;;;;28.52;4.50;;;;;;;7.65;74.83;101703.34;5037175;28;20113;-58
2022/02/22 09:08:37;;;;;;;28.60;5.18;;;;;;;7.62;74.42;101692.03;5031380;28;20048;-62
2022/02/22 09:11:02;;;;;;;25.92;4.70;;;;;;;7.56;74.66;101693.81;5035401;28;20029;-62
2022/02/22 09:13:28;;;;;;;35.92;4.75;;;;;;;7.57;74.26;101685.09;5047345;28;20033;-61
2022/02/22 09:15:53;;;;;;;31.02;5.60;;;;;;;7.55;74.18;101696.44;5038198;28;20021;-63
2022/02/22 09:18:19;;;;;;;33.38;4.78;;;;;;;7.54;74.10;101690.34;5037553;28;20025;-61
2022/02/22 09:20:45;;;;;;;21.08;4.68;;;;;;;7.57;73.72;101690.31;5032199;28;20029;-63
2022/02/22 09:23:10;;;;;;;29.30;4.68;;;;;;;7.54;74.09;101690.34;5034035;28;20022;-62
2022/02/22 09:25:36;;;;;;;34.38;6.40;;;;;;;7.76;73.28;101691.91;5048848;28;20071;-60
2022/02/22 09:28:03;;;;;;;33.92;5.82;;;;;;;7.73;72.85;101694.59;5050078;28;20060;-63
2022/02/22 09:30:31;;;;;;;28.60;5.00;;;;;;;7.79;73.06;101705.88;5049140;28;20443;-61
2022/02/22 09:32:56;;;;;;;29.65;5.13;;;;;;;7.89;72.94;101701.41;5049031;28;20052;-62
2022/02/22 09:35:27;;;;;;;31.15;6.15;;;;;;;8.07;71.82;101721.38;5051264;28;20045;-62
2022/02/22 09:37:54;;;;;;;29.17;5.00;;;;;;;8.05;71.42;101717.03;5050359;28;20036;-62
2022/02/22 09:40:20;;;;;;;33.30;5.25;;;;;;;8.01;71.25;101726.69;5049720;28;20031;-62
2022/02/22 09:42:46;;;;;;;30.45;5.40;;;;;;;7.91;71.40;101723.28;5049167;28;20104;-63
2022/02/22 09:45:13;;;;;;;31.65;5.22;;;;;;;7.95;71.87;101708.38;5044920;28;20480;-62
2022/02/22 09:47:39;;;;;;;31.73;5.90;;;;;;;8.05;71.56;101690.78;5040627;28;20033;-64
2022/02/22 09:50:05;;;;;;;29.67;5.80;;;;;;;8.04;71.56;101674.16;5041846;28;20341;-63
2022/02/22 09:52:31;;;;;;;31.65;5.95;;;;;;;8.06;72.22;101677.66;5046762;28;20083;-63
2022/02/22 09:54:56;;;;;;;30.70;5.63;;;;;;;8.07;72.21;101689.88;5040269;28;20017;-63
2022/02/22 09:57:21;;;;;;;28.67;6.18;;;;;;;8.08;72.52;101696.00;5041516;28;20025;-64
2022/02/22 09:59:46;;;;;;;23.95;5.75;;;;;;;8.17;72.02;101680.19;5040153;28;20035;-63
2022/02/22 10:02:12;;;;;;;39.45;5.22;;;;;;;8.16;72.52;101677.56;5040151;28;20025;-62
2022/02/22 10:04:45;;;;;;;29.08;6.43;;;;;;;7.99;73.35;101678.59;5038624;28;20084;-63
2022/02/22 10:07:11;;;;;;;41.70;7.03;;;;;;;8.05;73.46;101673.28;5037437;28;20395;-63
2022/02/22 10:09:54;;;;;;;39.03;6.10;;;;;;;8.04;73.95;101668.91;5043274;28;20025;-62
2022/02/22 10:12:36;;;;;;;41.85;7.05;;;;;;;7.89;75.19;101669.91;5039127;28;20041;-62
2022/02/22 10:15:03;;;;;;;39.53;6.43;;;;;;;7.84;75.98;101667.38;5038253;28;20021;-62
2022/02/22 10:17:37;;;;;;;43.95;6.57;;;;;;;7.80;77.00;101665.63;5038434;28;20025;-61
2022/02/22 10:20:04;;;;;;;47.60;8.10;;;;;;;7.72;77.90;101646.47;5039089;28;20280;-62
2022/02/22 10:22:30;;;;;;;42.30;7.22;;;;;;;7.58;78.80;101643.97;5040403;28;20079;-62
2022/02/22 10:25:07;;;;;;;36.17;6.65;;;;;;;7.52;79.57;101636.13;5037687;28;20424;-61
2022/02/22 10:27:48;;;;;;;36.15;6.22;;;;;;;7.46;79.90;101631.81;5040792;28;20467;-61
2022/02/22 10:30:34;;;;;;;40.35;6.72;;;;;;;7.46;80.50;101639.69;5046738;28;20055;-61
2022/02/22 10:33:00;;;;;;;35.15;6.57;;;;;;;7.43;81.02;101623.97;5039269;28;20475;-61
2022/02/22 10:35:27;;;;;;;32.95;6.60;;;;;;;7.46;81.24;101624.84;5043009;28;20031;-62
2022/02/22 10:37:52;;;;;;;38.90;7.13;;;;;;;7.27;81.92;101625.84;5041105;28;20740;-65
2022/02/22 10:40:24;;;;;;;37.03;6.20;;;;;;;7.29;82.54;101630.19;5038280;28;20032;-62
2022/02/22 10:42:50;;;;;;;32.88;6.80;;;;;;;7.35;82.58;101637.16;5037257;28;20018;-62
2022/02/22 10:45:17;;;;;;;34.47;6.53;;;;;;;7.36;82.80;101635.41;5036944;28;20078;-62
2022/02/22 10:47:42;;;;;;;36.95;6.47;;;;;;;7.21;83.45;101632.03;5039246;28;20020;-62
2022/02/22 10:50:08;;;;;;;31.52;5.50;;;;;;;7.30;83.48;101647.69;5045281;28;20034;-62
2022/02/22 10:52:33;;;;;;;23.17;5.68;;;;;;;7.38;83.39;101637.16;5042671;28;20036;-62
2022/02/22 10:55:00;;;;;;;36.58;8.25;;;;;;;7.40;83.38;101634.47;5043444;28;20017;-62
2022/02/22 10:57:26;;;;;;;30.33;8.20;;;;;;;7.40;83.94;101613.50;5048224;28;20037;-61
2022/02/22 10:59:51;;;;;;;32.08;8.13;;;;;;;7.51;83.77;101608.19;5047733;28;20024;-62
2022/02/22 11:02:17;;;;;;;25.75;7.63;;;;;;;7.62;83.49;101606.34;5041361;28;20017;-62
2022/02/22 11:04:43;;;;;;;35.92;7.97;;;;;;;7.68;83.54;101598.41;5047941;28;20479;-61
2022/02/22 11:07:15;;;;;;;34.83;8.60;;;;;;;7.71;83.67;101608.88;5047646;28;20051;-62
2022/02/22 11:09:40;;;;;;;40.03;8.75;;;;;;;7.73;83.74;101601.00;5046114;28;20040;-62
2022/02/22 11:12:11;;;;;;;27.08;8.32;;;;;;;7.73;84.08;101621.97;5047631;28;20048;-62
2022/02/22 11:14:36;;;;;;;34.92;8.60;;;;;;;7.82;84.04;101613.13;5038672;28;20067;-62
2022/02/22 11:17:15;;;;;;;42.08;10.27;;;;;;;7.89;83.70;101625.31;5046434;28;20056;-62
2022/02/22 11:19:40;;;;;;;31.60;8.88;;;;;;;7.97;83.83;101633.13;5047196;28;20028;-61